createdAt,value
2023-05-11T00:01:59.686Z,12.66
2023-05-11T00:04:29.463Z,12.65
2023-05-11T00:06:59.276Z,12.62
2023-05-11T00:09:28.915Z,12.63
2023-05-11T00:11:58.610Z,12.62
2023-05-11T00:14:30.908Z,12.62
2023-05-11T00:17:00.658Z,12.63
2023-05-11T00:19:31.552Z,12.64
2023-05-11T00:22:01.881Z,12.62
2023-05-11T00:24:31.571Z,12.62
2023-05-11T00:27:01.397Z,12.63
2023-05-11T00:29:33.677Z,12.64
2023-05-11T00:32:03.379Z,12.64
2023-05-11T00:34:33.133Z,12.64
2023-05-11T00:37:03.154Z,12.63
2023-05-11T00:39:38.698Z,12.61
2023-05-11T00:42:09.104Z,12.59
2023-05-11T00:44:41.407Z,12.59
2023-05-11T00:47:11.227Z,12.61
2023-05-11T00:49:40.951Z,12.59
2023-05-11T00:52:11.775Z,12.62
2023-05-11T00:54:42.752Z,12.64
2023-05-11T00:57:12.536Z,12.63
2023-05-11T00:59:44.813Z,12.64
2023-05-11T01:02:14.656Z,12.62
2023-05-11T01:04:44.486Z,12.60
2023-05-11T01:07:17.204Z,12.62
2023-05-11T01:09:54.261Z,12.62
2023-05-11T01:12:30.334Z,12.64
2023-05-11T01:15:05.124Z,12.65
2023-05-11T01:17:41.182Z,12.63
2023-05-11T01:20:17.119Z,12.64
2023-05-11T01:22:59.054Z,12.65
2023-05-11T01:25:40.256Z,12.65
2023-05-11T01:28:33.998Z,12.65
2023-05-11T01:31:10.331Z,12.66
2023-05-11T01:33:42.759Z,12.65
2023-05-11T01:36:14.448Z,12.65
2023-05-11T01:38:45.514Z,12.64
2023-05-11T01:41:18.444Z,12.63
2023-05-11T01:43:50.313Z,12.63
2023-05-11T01:46:24.664Z,12.61
2023-05-11T01:48:55.853Z,12.63
2023-05-11T01:51:27.095Z,12.61
2023-05-11T01:53:57.561Z,12.61
2023-05-11T01:56:27.772Z,12.62
2023-05-11T01:58:58.647Z,12.62
2023-05-11T02:01:32.349Z,12.63
2023-05-11T02:04:04.148Z,12.65
2023-05-11T02:06:35.481Z,12.65
2023-05-11T02:09:06.315Z,12.67
2023-05-11T02:11:37.645Z,12.68
2023-05-11T02:14:08.547Z,12.70
2023-05-11T02:16:41.657Z,12.70
2023-05-11T02:19:11.832Z,12.68
2023-05-11T02:21:42.080Z,12.66
2023-05-11T02:24:12.061Z,12.65
2023-05-11T02:26:41.754Z,12.67
2023-05-11T02:29:11.407Z,12.64
2023-05-11T02:31:46.693Z,12.60
2023-05-11T02:34:24.702Z,12.58
2023-05-11T02:36:57.232Z,12.52
2023-05-11T02:39:31.960Z,12.48
2023-05-11T02:42:04.414Z,12.47
2023-05-11T02:44:35.679Z,12.45
2023-05-11T02:47:09.554Z,12.42
2023-05-11T02:49:40.408Z,12.41
2023-05-11T02:52:13.362Z,12.38
2023-05-11T02:54:47.829Z,12.39
2023-05-11T02:57:18.333Z,12.40
2023-05-11T02:59:49.459Z,12.41
2023-05-11T03:02:31.135Z,12.42
2023-05-11T03:08:20.022Z,12.42
2023-05-11T03:10:50.575Z,12.41
2023-05-11T03:13:29.801Z,12.42
2023-05-11T03:16:05.807Z,12.43
2023-05-11T03:18:40.478Z,12.41
2023-05-11T03:21:11.725Z,12.39
2023-05-11T03:23:43.547Z,12.41
2023-05-11T03:26:15.239Z,12.42
2023-05-11T03:28:48.336Z,12.42
2023-05-11T03:31:18.980Z,12.43
2023-05-11T03:33:52.692Z,12.44
2023-05-11T03:36:24.961Z,12.46
2023-05-11T03:38:56.701Z,12.47
2023-05-11T03:41:29.096Z,12.47
2023-05-11T03:44:00.012Z,12.47
2023-05-11T03:46:31.768Z,12.48
2023-05-11T03:49:04.814Z,12.47
2023-05-11T03:51:34.653Z,12.45
2023-05-11T03:54:04.586Z,12.45
2023-05-11T03:56:34.350Z,12.46
2023-05-11T03:59:04.136Z,12.47
2023-05-11T04:01:34.722Z,12.46
2023-05-11T04:04:07.428Z,12.45
2023-05-11T04:06:37.349Z,12.43
2023-05-11T04:09:19.770Z,12.41
2023-05-11T04:11:49.748Z,12.41
2023-05-11T04:14:20.790Z,12.42
2023-05-11T04:16:50.908Z,12.43
2023-05-11T04:19:23.284Z,12.43
2023-05-11T04:21:53.055Z,12.42
2023-05-11T04:24:22.735Z,12.41
2023-05-11T04:26:52.423Z,12.39
2023-05-11T04:29:22.155Z,12.41
2023-05-11T04:31:51.916Z,12.40
2023-05-11T04:34:24.538Z,12.37
2023-05-11T04:36:55.112Z,12.38
2023-05-11T04:39:24.852Z,12.38
2023-05-11T04:41:54.607Z,12.38
2023-05-11T04:44:24.624Z,12.38
2023-05-11T04:46:57.240Z,12.38
2023-05-11T04:49:29.976Z,12.37
2023-05-11T04:51:59.979Z,12.37
2023-05-11T04:54:31.222Z,12.37
2023-05-11T04:57:00.986Z,12.38
2023-05-11T04:59:30.727Z,12.39
2023-05-11T05:02:00.452Z,12.44
2023-05-11T05:04:34.832Z,12.44
2023-05-11T05:07:06.513Z,12.41
2023-05-11T05:09:36.393Z,12.42
2023-05-11T05:12:06.446Z,12.44
2023-05-11T05:14:36.359Z,12.43
2023-05-11T05:17:06.378Z,12.46
2023-05-11T05:19:39.172Z,12.46
2023-05-11T05:22:09.027Z,12.45
2023-05-11T05:24:39.435Z,12.49
2023-05-11T05:27:09.340Z,12.50
2023-05-11T05:29:38.985Z,12.49
2023-05-11T05:32:08.985Z,12.50
2023-05-11T05:34:41.361Z,12.51
2023-05-11T05:37:11.261Z,12.52
2023-05-11T05:39:40.922Z,12.49
2023-05-11T05:42:10.664Z,12.52
2023-05-11T05:44:41.333Z,12.53
2023-05-11T05:47:11.154Z,12.56
2023-05-11T05:49:43.632Z,12.57
2023-05-11T05:52:13.484Z,12.62
2023-05-11T05:54:44.135Z,12.64
2023-05-11T05:57:15.795Z,12.69
2023-05-11T05:59:47.389Z,12.72
2023-05-11T06:02:20.069Z,12.71
2023-05-11T06:04:52.451Z,12.70
2023-05-11T06:07:25.706Z,12.74
2023-05-11T06:09:55.462Z,12.77
2023-05-11T06:12:25.207Z,12.83
2023-05-11T06:14:57.478Z,12.87
2023-05-11T06:17:28.627Z,12.93
2023-05-11T06:20:01.043Z,12.98
2023-05-11T06:22:33.679Z,13.04
2023-05-11T06:25:03.392Z,13.10
2023-05-11T06:27:33.112Z,13.12
2023-05-11T06:30:03.226Z,13.17
2023-05-11T06:32:36.788Z,13.24
2023-05-11T06:35:11.339Z,13.33
2023-05-11T06:37:41.160Z,13.37
2023-05-11T06:40:13.567Z,13.40
2023-05-11T06:42:43.387Z,13.47
2023-05-11T06:45:14.294Z,13.57
2023-05-11T06:47:45.704Z,13.64
2023-05-11T06:50:21.132Z,13.66
2023-05-11T06:52:51.217Z,13.66
2023-05-11T06:55:20.896Z,13.68
2023-05-11T06:57:50.584Z,13.72
2023-05-11T07:00:21.412Z,13.82
2023-05-11T07:02:51.559Z,14.02
2023-05-11T07:05:24.680Z,14.19
2023-05-11T07:07:54.707Z,14.22
2023-05-11T07:10:24.623Z,14.23
2023-05-11T07:12:54.313Z,14.15
2023-05-11T07:15:24.561Z,14.11
2023-05-11T07:17:54.263Z,14.09
2023-05-11T07:20:26.554Z,14.11
2023-05-11T07:22:59.477Z,14.20
2023-05-11T07:25:29.254Z,14.23
2023-05-11T07:27:58.998Z,14.26
2023-05-11T07:30:28.675Z,14.39
2023-05-11T07:32:58.330Z,14.50
2023-05-11T07:35:30.996Z,14.62
2023-05-11T07:38:00.665Z,14.82
2023-05-11T07:40:30.512Z,14.86
2023-05-11T07:43:00.410Z,14.82
2023-05-11T07:45:30.357Z,14.78
2023-05-11T07:48:00.271Z,14.71
2023-05-11T07:50:32.617Z,14.67
2023-05-11T07:53:02.290Z,14.69
2023-05-11T07:55:32.006Z,14.70
2023-05-11T07:58:01.767Z,14.69
2023-05-11T08:00:31.570Z,14.72
2023-05-11T08:03:01.468Z,14.77
2023-05-11T08:05:38.026Z,14.81
2023-05-11T08:08:08.340Z,14.85
2023-05-11T08:10:39.172Z,14.93
2023-05-11T08:13:08.869Z,14.99
2023-05-11T08:15:38.573Z,15.11
2023-05-11T08:18:09.139Z,15.16
2023-05-11T08:20:42.427Z,15.16
2023-05-11T08:23:17.313Z,15.14
2023-05-11T08:25:52.638Z,15.17
2023-05-11T08:28:22.974Z,15.19
2023-05-11T08:30:57.366Z,15.24
2023-05-11T08:36:03.963Z,15.25
2023-05-11T08:38:33.625Z,15.24
2023-05-11T08:41:05.028Z,15.42
2023-05-11T08:43:35.637Z,15.51
2023-05-11T08:46:07.861Z,15.69
2023-05-11T08:48:38.173Z,15.86
2023-05-11T08:51:10.798Z,16.05
2023-05-11T08:53:40.590Z,16.22
2023-05-11T08:56:11.945Z,16.21
2023-05-11T08:58:43.131Z,16.25
2023-05-11T09:01:13.410Z,16.30
2023-05-11T09:03:43.444Z,16.29
2023-05-11T09:06:15.948Z,16.30
2023-05-11T09:08:46.623Z,16.23
2023-05-11T09:11:16.535Z,16.16
2023-05-11T09:13:46.291Z,16.15
2023-05-11T09:16:32.618Z,15.95
2023-05-11T09:19:06.638Z,15.93
2023-05-11T09:21:41.472Z,15.99
2023-05-11T09:24:14.178Z,15.99
2023-05-11T09:26:44.092Z,16.00
2023-05-11T09:29:14.142Z,15.98
2023-05-11T09:31:45.236Z,16.03
2023-05-11T09:34:19.389Z,16.02
2023-05-11T09:36:53.378Z,16.10
2023-05-11T09:39:38.148Z,16.15
2023-05-11T09:42:15.088Z,16.21
2023-05-11T09:44:45.137Z,16.31
2023-05-11T09:47:16.664Z,16.43
2023-05-11T09:49:47.890Z,16.50
2023-05-11T09:52:21.420Z,16.56
2023-05-11T09:54:53.856Z,16.64
2023-05-11T09:57:28.594Z,16.76
2023-05-11T09:59:59.256Z,16.84
2023-05-11T10:02:31.400Z,16.93
2023-05-11T10:05:02.501Z,17.01
2023-05-11T10:07:36.165Z,17.00
2023-05-11T10:10:07.316Z,16.97
2023-05-11T10:12:38.661Z,17.04
2023-05-11T10:15:10.202Z,17.11
2023-05-11T10:17:44.633Z,17.05
2023-05-11T10:20:15.923Z,16.98
2023-05-11T10:22:48.766Z,16.93
2023-05-11T10:25:18.725Z,16.93
2023-05-11T10:27:50.729Z,16.93
2023-05-11T10:30:21.469Z,16.86
2023-05-11T10:32:51.938Z,16.90
2023-05-11T10:35:21.940Z,16.94
2023-05-11T10:37:54.800Z,17.04
2023-05-11T10:40:24.871Z,17.11
2023-05-11T10:43:11.713Z,17.09
2023-05-11T10:45:51.568Z,17.03
2023-05-11T10:48:47.635Z,17.01
2023-05-11T10:51:36.689Z,17.02
2023-05-11T10:54:21.340Z,16.99
2023-05-11T10:57:05.227Z,16.97
2023-05-11T10:59:45.702Z,16.96
2023-05-11T11:02:17.271Z,16.99
2023-05-11T11:04:48.664Z,16.98
2023-05-11T11:07:20.966Z,16.95
2023-05-11T11:10:00.084Z,16.91
2023-05-11T11:12:31.279Z,16.93
2023-05-11T11:15:02.361Z,16.95
2023-05-11T11:17:34.871Z,17.02
2023-05-11T11:20:07.526Z,17.03
2023-05-11T11:22:56.334Z,17.09
2023-05-11T11:25:56.559Z,17.15
2023-05-11T11:28:26.396Z,17.08
2023-05-11T11:31:26.329Z,17.11
2023-05-11T11:33:59.048Z,17.11
2023-05-11T11:37:13.552Z,17.08
2023-05-11T11:40:13.962Z,17.04
2023-05-11T11:42:47.654Z,17.03
2023-05-11T11:45:39.139Z,16.99
2023-05-11T11:48:16.575Z,17.01
2023-05-11T11:50:48.051Z,16.99
2023-05-11T11:53:47.934Z,16.97
2023-05-11T11:56:43.879Z,16.93
2023-05-11T11:59:17.197Z,16.93
2023-05-11T12:01:48.161Z,16.89
2023-05-11T12:04:42.161Z,16.91
2023-05-11T12:07:15.131Z,16.93
2023-05-11T12:09:44.836Z,16.94
2023-05-11T12:12:14.627Z,16.98
2023-05-11T12:14:49.469Z,17.04
2023-05-11T12:17:28.390Z,17.10
2023-05-11T12:19:58.888Z,17.12
2023-05-11T12:22:29.050Z,17.15
2023-05-11T12:25:00.595Z,17.18
2023-05-11T12:27:30.488Z,17.21
2023-05-11T12:30:02.820Z,17.18
2023-05-11T12:32:33.449Z,17.22
2023-05-11T12:35:04.383Z,17.22
2023-05-11T12:37:34.436Z,17.28
2023-05-11T12:40:04.118Z,17.31
2023-05-11T12:42:35.324Z,17.32
2023-05-11T12:45:08.872Z,17.37
2023-05-11T12:47:38.689Z,17.39
2023-05-11T12:50:10.025Z,17.47
2023-05-11T12:52:39.700Z,17.52
2023-05-11T12:55:11.578Z,17.58
2023-05-11T12:57:42.421Z,17.62
2023-05-11T13:00:17.720Z,17.68
2023-05-11T13:02:52.818Z,17.68
2023-05-11T13:05:26.440Z,17.68
2023-05-11T13:08:03.616Z,17.67
2023-05-11T13:10:33.415Z,17.71
2023-05-11T13:13:03.042Z,17.70
2023-05-11T13:15:35.630Z,17.71
2023-05-11T13:18:06.068Z,17.69
2023-05-11T13:20:36.584Z,17.70
2023-05-11T13:23:08.127Z,17.61
2023-05-11T13:25:38.923Z,17.62
2023-05-11T13:28:08.593Z,17.57
2023-05-11T13:30:41.179Z,17.65
2023-05-11T13:33:10.932Z,17.68
2023-05-11T13:35:41.422Z,17.76
2023-05-11T13:38:11.790Z,17.71
2023-05-11T13:40:42.027Z,17.71
2023-05-11T13:43:11.683Z,17.68
2023-05-11T13:45:43.941Z,17.63
2023-05-11T13:48:13.667Z,17.56
2023-05-11T13:50:43.417Z,17.54
2023-05-11T13:53:13.810Z,17.59
2023-05-11T13:55:44.562Z,17.63
2023-05-11T13:58:14.207Z,17.71
2023-05-11T14:00:56.528Z,17.79
2023-05-11T14:03:36.722Z,17.86
2023-05-11T14:06:06.745Z,17.91
2023-05-11T14:08:36.451Z,17.93
2023-05-11T14:11:06.416Z,17.98
2023-05-11T14:13:36.106Z,18.00
2023-05-11T14:16:10.117Z,18.01
2023-05-11T14:18:39.938Z,18.07
2023-05-11T14:21:09.953Z,18.11
2023-05-11T14:23:43.085Z,18.08
2023-05-11T14:26:17.204Z,18.07
2023-05-11T14:28:46.998Z,18.09
2023-05-11T14:31:19.779Z,18.06
2023-05-11T14:33:49.563Z,18.08
2023-05-11T14:36:19.421Z,18.06
2023-05-11T14:38:49.096Z,18.07
2023-05-11T14:41:19.036Z,18.10
2023-05-11T14:43:49.526Z,18.07
2023-05-11T14:46:21.935Z,18.03
2023-05-11T14:48:53.696Z,18.00
2023-05-11T14:51:25.863Z,17.86
2023-05-11T14:53:55.590Z,17.72
2023-05-11T14:56:26.528Z,17.51
2023-05-11T14:58:56.480Z,17.43
2023-05-11T15:07:39.707Z,17.01
2023-05-11T15:10:10.943Z,17.00
2023-05-11T15:12:43.028Z,16.97
2023-05-11T15:15:13.971Z,17.02
2023-05-11T15:17:46.750Z,16.94
2023-05-11T15:20:21.006Z,16.95
2023-05-11T15:22:51.511Z,16.84
2023-05-11T15:25:22.064Z,16.85
2023-05-11T15:27:55.374Z,16.78
2023-05-11T15:30:26.303Z,16.84
2023-05-11T15:32:57.571Z,16.68
2023-05-11T15:35:30.040Z,16.71
2023-05-11T15:37:59.721Z,16.76
2023-05-11T15:40:29.920Z,16.67
2023-05-11T15:43:00.369Z,16.54
2023-05-11T15:45:30.400Z,16.55
2023-05-11T15:48:00.381Z,16.52
2023-05-11T15:50:33.324Z,16.54
2023-05-11T15:53:03.872Z,16.50
2023-05-11T15:55:33.875Z,16.55
2023-05-11T15:58:03.612Z,16.50
2023-05-11T16:00:33.279Z,16.40
2023-05-11T16:03:03.046Z,16.42
2023-05-11T16:05:36.332Z,16.42
2023-05-11T16:08:07.455Z,16.46
2023-05-11T16:10:37.215Z,16.49
2023-05-11T16:13:06.934Z,16.46
2023-05-11T16:15:36.976Z,16.48
2023-05-11T16:18:07.176Z,16.46
2023-05-11T16:20:39.491Z,16.38
2023-05-11T16:23:09.543Z,16.38
2023-05-11T16:25:39.775Z,16.35
2023-05-11T16:28:09.997Z,16.30
2023-05-11T16:30:40.328Z,16.26
2023-05-11T16:33:10.168Z,16.23
2023-05-11T16:35:42.534Z,16.26
2023-05-11T16:38:19.128Z,16.17
2023-05-11T16:40:48.957Z,16.19
2023-05-11T16:43:19.085Z,16.27
2023-05-11T16:45:49.063Z,16.31
2023-05-11T16:48:19.213Z,16.36
2023-05-11T16:50:52.445Z,16.35
2023-05-11T16:53:27.167Z,16.39
2023-05-11T16:55:57.784Z,16.40
2023-05-11T16:58:28.232Z,16.33
2023-05-11T17:00:57.936Z,16.35
2023-05-11T17:03:28.366Z,16.33
2023-05-11T17:06:01.051Z,16.33
2023-05-11T17:08:30.781Z,16.33
2023-05-11T17:11:00.503Z,16.34
2023-05-11T17:13:30.191Z,16.32
2023-05-11T17:15:59.945Z,16.30
2023-05-11T17:18:29.930Z,16.27
2023-05-11T17:21:02.348Z,16.26
2023-05-11T17:23:32.904Z,16.25
2023-05-11T17:26:02.616Z,16.25
2023-05-11T17:28:32.289Z,16.22
2023-05-11T17:31:02.162Z,16.23
2023-05-11T17:33:32.394Z,16.21
2023-05-11T17:36:07.775Z,16.18
2023-05-11T17:38:38.728Z,16.10
2023-05-11T17:41:09.401Z,16.09
2023-05-11T17:43:39.282Z,16.08
2023-05-11T17:46:09.325Z,16.04
2023-05-11T17:48:39.136Z,16.02
2023-05-11T17:51:11.451Z,16.02
2023-05-11T17:53:41.250Z,16.00
2023-05-11T17:56:11.950Z,15.98
2023-05-11T17:58:43.201Z,15.97
2023-05-11T18:01:14.180Z,15.95
2023-05-11T18:03:44.371Z,15.93
2023-05-11T18:06:16.809Z,15.91
2023-05-11T18:08:50.074Z,15.89
2023-05-11T18:11:19.806Z,15.88
2023-05-11T18:13:49.559Z,15.85
2023-05-11T18:16:20.230Z,15.83
2023-05-11T18:18:50.058Z,15.82
2023-05-11T18:21:22.457Z,15.78
2023-05-11T18:23:52.242Z,15.76
2023-05-11T18:26:22.335Z,15.75
2023-05-11T18:28:54.719Z,15.73
2023-05-11T18:31:24.499Z,15.65
2023-05-11T18:33:54.309Z,15.62
2023-05-11T18:36:28.170Z,15.61
2023-05-11T18:38:58.096Z,15.59
2023-05-11T18:41:27.846Z,15.58
2023-05-11T18:43:57.918Z,15.56
2023-05-11T18:46:27.992Z,15.55
2023-05-11T18:48:58.203Z,15.53
2023-05-11T18:51:31.830Z,15.51
2023-05-11T18:54:01.514Z,15.50
2023-05-11T18:56:31.210Z,15.46
2023-05-11T18:59:01.140Z,15.46
2023-05-11T19:01:46.634Z,15.44
2023-05-11T19:04:19.964Z,15.42
2023-05-11T19:06:52.505Z,15.39
2023-05-11T19:09:22.529Z,15.37
2023-05-11T19:11:52.224Z,15.32
2023-05-11T19:14:21.970Z,15.29
2023-05-11T19:16:52.089Z,15.24
2023-05-11T19:19:22.173Z,15.21
2023-05-11T19:21:54.559Z,15.17
2023-05-11T19:24:24.419Z,15.15
2023-05-11T19:27:05.711Z,15.14
2023-05-11T19:29:37.259Z,15.11
2023-05-11T19:32:07.853Z,15.11
2023-05-11T19:34:37.628Z,15.07
2023-05-11T19:37:10.041Z,15.03
2023-05-11T19:39:39.795Z,14.98
2023-05-11T19:42:09.902Z,14.94
2023-05-11T19:44:43.571Z,14.90
2023-05-11T19:47:13.316Z,14.88
2023-05-11T19:49:42.987Z,14.84
2023-05-11T19:52:15.346Z,14.80
2023-05-11T19:54:45.684Z,14.76
2023-05-11T19:57:15.402Z,14.77
2023-05-11T19:59:45.112Z,14.75
2023-05-11T20:02:14.876Z,14.75
2023-05-11T20:04:47.238Z,14.72
2023-05-11T20:07:20.349Z,14.73
2023-05-11T20:09:50.252Z,14.72
2023-05-11T20:12:20.291Z,14.71
2023-05-11T20:14:50.064Z,14.70
2023-05-11T20:17:19.750Z,14.67
2023-05-11T20:19:49.451Z,14.68
2023-05-11T20:22:22.769Z,14.66
2023-05-11T20:24:52.517Z,14.64
2023-05-11T20:27:22.353Z,14.63
2023-05-11T20:29:52.933Z,14.62
2023-05-11T20:32:22.710Z,14.59
2023-05-11T20:34:52.958Z,14.59
2023-05-11T20:37:25.283Z,14.57
2023-05-11T20:39:55.180Z,14.56
2023-05-11T20:42:25.016Z,14.54
2023-05-11T20:44:54.752Z,14.54
2023-05-11T20:47:24.439Z,14.53
2023-05-11T20:49:54.112Z,14.51
2023-05-11T20:52:26.462Z,14.51
2023-05-11T20:54:56.447Z,14.50
2023-05-11T20:57:26.091Z,14.49
2023-05-11T21:02:28.513Z,14.48
2023-05-11T21:05:02.095Z,14.47
2023-05-11T21:07:34.719Z,14.45
2023-05-11T21:10:04.616Z,14.42
2023-05-11T21:12:34.625Z,14.40
2023-05-11T21:15:04.380Z,14.38
2023-05-11T21:17:34.629Z,14.32
2023-05-11T21:20:05.109Z,14.32
2023-05-11T21:22:38.539Z,14.32
2023-05-11T21:25:09.233Z,14.32
2023-05-11T21:27:39.307Z,14.31
2023-05-11T21:30:11.167Z,14.28
2023-05-11T21:32:40.850Z,14.27
2023-05-11T21:35:11.528Z,14.26
2023-05-11T21:37:45.480Z,14.26
2023-05-11T21:40:16.215Z,14.25
2023-05-11T21:42:46.381Z,14.25
2023-05-11T21:45:16.138Z,14.24
2023-05-11T21:47:45.969Z,14.22
2023-05-11T21:50:15.773Z,14.22
2023-05-11T21:52:48.157Z,14.22
2023-05-11T21:55:18.014Z,14.23
2023-05-11T21:57:47.761Z,14.22
2023-05-11T22:00:19.665Z,14.23
2023-05-11T22:02:49.668Z,14.23
2023-05-11T22:05:19.622Z,14.23
2023-05-11T22:07:57.796Z,14.24
2023-05-11T22:10:33.270Z,14.24
2023-05-11T22:13:03.721Z,14.26
2023-05-11T22:15:33.469Z,14.25
2023-05-11T22:18:03.705Z,14.24
2023-05-11T22:20:33.867Z,14.24
2023-05-11T22:23:06.169Z,14.21
2023-05-11T22:25:35.977Z,14.21
2023-05-11T22:28:05.689Z,14.21
2023-05-11T22:30:35.399Z,14.20
2023-05-11T22:33:05.101Z,14.20
2023-05-11T22:35:34.915Z,14.18
2023-05-11T22:38:07.691Z,14.18
2023-05-11T22:40:37.460Z,14.17
2023-05-11T22:43:07.161Z,14.18
2023-05-11T22:45:37.187Z,14.17
2023-05-11T22:48:08.129Z,14.17
2023-05-11T22:50:37.798Z,14.16
2023-05-11T22:53:10.130Z,14.13
2023-05-11T22:55:39.850Z,14.13
2023-05-11T22:58:09.509Z,14.13
2023-05-11T23:00:39.281Z,14.14
2023-05-11T23:03:09.116Z,14.13
2023-05-11T23:05:38.812Z,14.12
2023-05-11T23:08:11.552Z,14.08
2023-05-11T23:10:41.266Z,14.07
2023-05-11T23:13:12.881Z,14.07
2023-05-11T23:15:42.553Z,14.07
2023-05-11T23:18:12.426Z,14.07
2023-05-11T23:20:42.163Z,14.07
2023-05-11T23:23:14.424Z,14.06
2023-05-11T23:25:44.347Z,14.07
2023-05-11T23:28:14.015Z,14.05
2023-05-11T23:30:46.052Z,14.03
2023-05-11T23:33:15.903Z,14.03
2023-05-11T23:35:45.885Z,13.99
2023-05-11T23:38:18.218Z,13.99
2023-05-11T23:40:48.010Z,13.97
2023-05-11T23:43:17.730Z,13.95
2023-05-11T23:45:47.538Z,13.96
2023-05-11T23:48:17.223Z,13.97
2023-05-11T23:50:47.012Z,13.95
2023-05-11T23:53:19.357Z,13.92
2023-05-11T23:55:49.778Z,13.94
2023-05-11T23:58:19.554Z,13.94
